createdAt,value
2022-11-03T00:00:12.473Z,3.45
2022-11-03T00:05:14.505Z,3.08
2022-11-03T00:10:16.034Z,3.20
2022-11-03T00:15:17.562Z,3.72
2022-11-03T00:20:19.183Z,3.95
2022-11-03T00:25:20.698Z,3.08
2022-11-03T00:30:22.336Z,2.75
2022-11-03T00:35:23.858Z,3.88
2022-11-03T00:40:25.507Z,5.82
2022-11-03T00:45:27.033Z,2.40
2022-11-03T00:50:28.632Z,3.38
2022-11-03T00:55:30.204Z,3.00
2022-11-03T01:00:31.744Z,2.97
2022-11-03T01:05:33.313Z,4.22
2022-11-03T01:10:36.638Z,3.60
2022-11-03T01:15:38.156Z,2.83
2022-11-03T01:20:39.794Z,2.88
2022-11-03T01:25:41.324Z,2.72
2022-11-03T01:30:42.918Z,2.55
2022-11-03T01:35:44.459Z,2.67
2022-11-03T01:40:45.972Z,2.67
2022-11-03T01:45:51.092Z,2.72
2022-11-03T01:50:53.033Z,3.40
2022-11-03T01:55:56.233Z,3.17
2022-11-03T02:01:00.405Z,3.13
2022-11-03T02:06:04.005Z,2.97
2022-11-03T02:11:05.719Z,2.90
2022-11-03T02:16:07.429Z,3.35
2022-11-03T02:21:34.253Z,3.35
2022-11-03T02:26:36.003Z,3.42
2022-11-03T02:31:50.626Z,2.80
2022-11-03T02:37:17.396Z,2.40
2022-11-03T02:42:21.011Z,2.83
2022-11-03T02:47:25.816Z,3.05
2022-11-03T02:52:47.534Z,2.28
2022-11-03T02:58:13.016Z,2.92
2022-11-03T03:03:21.940Z,2.95
2022-11-03T03:08:25.939Z,3.20
2022-11-03T03:13:27.934Z,2.60
2022-11-03T03:18:56.132Z,3.30
2022-11-03T03:24:02.560Z,3.17
2022-11-03T03:29:11.563Z,3.00
2022-11-03T03:34:33.857Z,2.67
2022-11-03T03:39:40.037Z,2.58
2022-11-03T03:44:43.395Z,2.95
2022-11-03T03:49:45.051Z,2.47
2022-11-03T03:54:46.580Z,4.22
2022-11-03T03:59:48.166Z,2.65
2022-11-03T04:04:49.798Z,2.55
2022-11-03T04:09:51.401Z,2.97
2022-11-03T04:14:53.117Z,2.63
2022-11-03T04:19:54.633Z,4.30
2022-11-03T04:24:58.128Z,3.15
2022-11-03T04:30:06.597Z,2.83
2022-11-03T04:35:28.138Z,3.40
2022-11-03T04:40:29.910Z,3.28
2022-11-03T04:45:32.750Z,3.05
2022-11-03T04:50:34.618Z,3.10
2022-11-03T04:55:36.127Z,2.72
2022-11-03T05:00:37.642Z,2.10
2022-11-03T05:05:39.113Z,2.85
2022-11-03T05:10:40.682Z,2.60
2022-11-03T05:15:44.983Z,3.25
2022-11-03T05:21:02.833Z,2.75
2022-11-03T05:26:06.252Z,2.25
2022-11-03T05:31:22.690Z,2.67
2022-11-03T05:36:26.511Z,2.10
2022-11-03T05:41:30.386Z,2.42
2022-11-03T05:46:35.162Z,2.20
2022-11-03T05:51:42.752Z,2.30
2022-11-03T05:56:44.274Z,2.40
2022-11-03T06:01:46.063Z,3.70
2022-11-03T06:07:15.330Z,2.85
2022-11-03T06:12:19.145Z,2.35
2022-11-03T06:17:27.361Z,2.47
2022-11-03T06:22:36.806Z,2.70
2022-11-03T06:27:38.900Z,2.70
2022-11-03T06:32:40.494Z,2.72
2022-11-03T06:37:42.688Z,2.15
2022-11-03T06:42:44.325Z,3.17
2022-11-03T06:47:46.926Z,1.98
2022-11-03T06:57:59.585Z,2.50
2022-11-03T07:03:17.936Z,2.85
2022-11-03T07:08:26.996Z,3.17
2022-11-03T07:13:30.971Z,3.15
2022-11-03T07:18:40.912Z,2.80
2022-11-03T07:23:44.759Z,2.70
2022-11-03T07:28:48.908Z,2.70
2022-11-03T07:33:55.397Z,2.97
2022-11-03T07:38:59.795Z,2.00
2022-11-03T07:44:02.458Z,2.15
2022-11-03T07:49:05.264Z,2.55
2022-11-03T07:54:28.621Z,2.47
2022-11-03T07:59:47.439Z,2.10
2022-11-03T08:04:49.029Z,2.33
2022-11-03T08:09:51.099Z,2.30
2022-11-03T08:14:52.661Z,3.13
2022-11-03T08:19:54.329Z,2.13
2022-11-03T08:24:55.910Z,2.67
2022-11-03T08:29:57.492Z,2.72
2022-11-03T08:34:59.044Z,2.03
2022-11-03T08:40:00.621Z,1.65
2022-11-03T08:45:02.241Z,3.13
2022-11-03T08:50:04.954Z,2.20
2022-11-03T08:55:06.859Z,3.15
2022-11-03T09:00:09.135Z,2.08
2022-11-03T09:05:11.851Z,2.53
2022-11-03T09:10:22.312Z,2.40
2022-11-03T09:15:26.787Z,1.98
2022-11-03T09:20:28.391Z,2.92
2022-11-03T09:25:30.063Z,2.55
2022-11-03T09:30:31.703Z,2.50
2022-11-03T09:35:33.315Z,2.55
2022-11-03T09:40:35.667Z,2.90
2022-11-03T09:45:38.906Z,2.55
2022-11-03T09:50:40.907Z,2.45
2022-11-03T09:55:42.551Z,1.98
2022-11-03T10:00:45.007Z,1.58
2022-11-03T10:05:47.935Z,1.85
2022-11-03T10:10:50.458Z,1.90
2022-11-03T10:15:52.375Z,2.53
2022-11-03T10:20:54.270Z,2.28
2022-11-03T10:26:08.521Z,2.38
2022-11-03T10:31:20.281Z,1.83
2022-11-03T10:36:24.359Z,1.60
2022-11-03T10:41:26.992Z,1.20
2022-11-03T10:46:49.166Z,2.08
2022-11-03T10:51:53.275Z,1.48
2022-11-03T10:56:55.037Z,1.30
2022-11-03T11:01:58.082Z,1.60
2022-11-03T11:06:59.791Z,1.95
2022-11-03T11:12:02.281Z,1.75
2022-11-03T11:17:42.202Z,1.30
2022-11-03T11:22:44.025Z,1.35
2022-11-03T11:27:45.452Z,1.55
2022-11-03T11:32:46.928Z,1.90
2022-11-03T11:37:48.615Z,1.50
2022-11-03T11:43:02.433Z,1.88
2022-11-03T11:48:19.067Z,2.08
2022-11-03T11:53:27.506Z,1.63
2022-11-03T11:58:32.130Z,2.00
2022-11-03T12:03:38.768Z,1.70
2022-11-03T12:13:48.442Z,1.58
2022-11-03T12:18:50.742Z,1.77
2022-11-03T12:23:52.826Z,1.58
2022-11-03T12:28:55.098Z,1.90
2022-11-03T12:33:56.638Z,1.63
2022-11-03T12:38:58.190Z,2.22
2022-11-03T12:43:59.933Z,2.65
2022-11-03T12:49:01.504Z,1.90
2022-11-03T12:54:03.092Z,1.70
2022-11-03T12:59:04.814Z,1.83
2022-11-03T13:04:06.290Z,2.10
2022-11-03T13:09:07.858Z,1.40
2022-11-03T13:14:09.879Z,1.67
2022-11-03T13:19:11.471Z,1.92
2022-11-03T13:24:13.046Z,2.50
2022-11-03T13:29:14.605Z,2.13
2022-11-03T13:34:16.315Z,1.92
2022-11-03T13:39:17.844Z,2.88
2022-11-03T13:44:19.472Z,1.90
2022-11-03T13:50:07.651Z,2.00
2022-11-03T14:00:05.690Z,1.92
2022-11-03T14:05:13.910Z,2.05
2022-11-03T14:10:15.605Z,2.40
2022-11-03T14:15:17.176Z,2.22
2022-11-03T14:20:18.815Z,2.53
2022-11-03T14:25:20.355Z,2.33
2022-11-03T14:30:22.115Z,2.30
2022-11-03T14:35:23.643Z,2.05
2022-11-03T14:40:25.175Z,2.20
2022-11-03T14:45:26.724Z,2.58
2022-11-03T14:50:28.463Z,1.98
2022-11-03T14:55:29.970Z,2.67
2022-11-03T15:00:31.516Z,2.10
2022-11-03T15:05:33.070Z,2.83
2022-11-03T15:10:34.583Z,2.58
2022-11-03T15:15:36.284Z,3.35
2022-11-03T15:20:38.058Z,3.08
2022-11-03T15:25:39.570Z,2.80
2022-11-03T15:30:41.162Z,3.45
2022-11-03T15:35:42.799Z,3.88
2022-11-03T15:40:44.444Z,3.63
2022-11-03T15:45:45.942Z,3.47
2022-11-03T15:50:47.444Z,3.65
2022-11-03T15:55:48.955Z,3.65
2022-11-03T16:00:50.612Z,3.13
2022-11-03T16:05:52.193Z,2.80
2022-11-03T16:10:57.980Z,3.28
2022-11-03T16:15:59.865Z,4.73
2022-11-03T16:21:01.410Z,3.58
2022-11-03T16:26:02.958Z,3.67
2022-11-03T16:31:04.565Z,3.20
2022-11-03T16:36:06.485Z,4.55
2022-11-03T16:41:08.027Z,3.38
2022-11-03T16:46:09.529Z,3.03
2022-11-03T16:51:11.030Z,2.72
2022-11-03T16:56:12.590Z,2.60
2022-11-03T17:01:14.220Z,3.20
2022-11-03T17:06:15.909Z,3.10
2022-11-03T17:11:17.479Z,4.50
2022-11-03T17:16:19.001Z,3.30
2022-11-03T17:21:20.575Z,3.40
2022-11-03T17:26:31.965Z,2.67
2022-11-03T17:31:33.550Z,3.55
2022-11-03T17:36:35.088Z,3.00
2022-11-03T17:41:36.600Z,2.78
2022-11-03T17:46:38.287Z,3.08
2022-11-03T17:51:41.967Z,3.42
2022-11-03T17:56:43.788Z,3.15
2022-11-03T18:01:45.579Z,2.92
2022-11-03T18:06:47.192Z,3.60
2022-11-03T18:11:48.851Z,2.90
2022-11-03T18:16:51.243Z,2.83
2022-11-03T18:21:52.810Z,2.72
2022-11-03T18:26:54.363Z,2.55
2022-11-03T18:31:56.186Z,3.67
2022-11-03T18:36:57.894Z,2.88
2022-11-03T18:41:59.538Z,3.05
2022-11-03T18:47:01.091Z,3.75
2022-11-03T18:52:07.308Z,3.80
2022-11-03T18:57:11.703Z,4.53
2022-11-03T19:02:22.922Z,4.28
2022-11-03T19:07:32.589Z,4.90
2022-11-03T19:12:38.825Z,4.82
2022-11-03T19:22:42.423Z,3.58
2022-11-03T19:27:46.878Z,4.32
2022-11-03T19:32:54.563Z,4.53
2022-11-03T19:38:10.943Z,4.60
2022-11-03T19:43:12.688Z,5.05
2022-11-03T19:48:30.080Z,5.32
2022-11-03T19:53:31.899Z,4.70
2022-11-03T19:58:33.478Z,6.47
2022-11-03T20:03:35.512Z,6.40
2022-11-03T20:08:37.541Z,7.38
2022-11-03T20:13:43.271Z,6.20
2022-11-03T20:18:44.854Z,7.85
2022-11-03T20:23:48.575Z,7.35
2022-11-03T20:28:51.008Z,6.47
2022-11-03T20:33:52.632Z,7.05
2022-11-03T20:38:54.568Z,7.13
2022-11-03T20:43:56.942Z,7.95
2022-11-03T20:48:59.573Z,7.05
2022-11-03T20:54:13.703Z,8.68
2022-11-03T20:59:16.788Z,8.30
2022-11-03T21:04:20.348Z,8.73
2022-11-03T21:09:21.878Z,6.30
2022-11-03T21:14:30.912Z,7.32
2022-11-03T21:19:33.152Z,5.80
2022-11-03T21:24:34.692Z,5.45
2022-11-03T21:29:58.281Z,5.53
2022-11-03T21:34:57.694Z,5.85
2022-11-03T21:39:59.271Z,6.07
2022-11-03T21:45:01.010Z,5.82
2022-11-03T21:50:03.195Z,6.22
2022-11-03T21:55:05.253Z,5.50
2022-11-03T22:00:07.512Z,5.10
2022-11-03T22:05:11.000Z,4.28
2022-11-03T22:10:12.781Z,3.53
2022-11-03T22:15:14.438Z,3.20
2022-11-03T22:20:15.999Z,2.88
2022-11-03T22:25:17.497Z,3.17
2022-11-03T22:30:19.121Z,3.60
2022-11-03T22:35:22.090Z,2.05
2022-11-03T22:40:23.618Z,1.92
2022-11-03T22:45:25.189Z,1.45
2022-11-03T22:50:26.726Z,1.85
2022-11-03T22:55:28.447Z,2.13
2022-11-03T23:00:29.981Z,2.10
2022-11-03T23:05:34.926Z,1.60
2022-11-03T23:10:36.466Z,1.70
2022-11-03T23:15:38.053Z,1.33
2022-11-03T23:20:39.546Z,1.50
2022-11-03T23:25:41.039Z,1.00
2022-11-03T23:30:44.289Z,1.05
2022-11-03T23:35:45.805Z,1.50
2022-11-03T23:40:47.354Z,1.30
2022-11-03T23:45:48.855Z,1.30
2022-11-03T23:50:50.359Z,1.98
2022-11-03T23:55:51.892Z,1.70
